createdAt,value
2023-06-30T00:00:03.448Z,5.20
2023-06-30T00:02:37.699Z,5.00
2023-06-30T00:05:14.847Z,5.30
2023-06-30T00:07:56.166Z,5.00
2023-06-30T00:10:32.315Z,5.00
2023-06-30T00:13:07.869Z,5.20
2023-06-30T00:15:41.689Z,5.60
2023-06-30T00:18:18.195Z,5.40
2023-06-30T00:20:51.661Z,5.40
2023-06-30T00:23:29.684Z,5.50
2023-06-30T00:26:09.738Z,5.00
2023-06-30T00:28:46.613Z,5.40
2023-06-30T00:31:33.098Z,5.10
2023-06-30T00:34:08.880Z,4.90
2023-06-30T00:36:42.931Z,4.90
2023-06-30T00:39:18.996Z,5.10
2023-06-30T00:41:52.713Z,5.10
2023-06-30T00:44:29.330Z,4.90
2023-06-30T00:47:02.836Z,5.10
2023-06-30T00:49:39.160Z,4.80
2023-06-30T00:52:12.994Z,5.00
2023-06-30T00:54:47.063Z,5.00
2023-06-30T00:57:21.386Z,5.00
2023-06-30T00:59:54.774Z,5.10
2023-06-30T01:02:32.987Z,5.00
2023-06-30T01:05:26.240Z,5.00
2023-06-30T01:08:14.232Z,4.80
2023-06-30T01:10:49.868Z,4.80
2023-06-30T01:13:27.284Z,4.90
2023-06-30T01:16:02.178Z,4.90
2023-06-30T01:18:37.406Z,4.80
2023-06-30T01:21:14.109Z,5.10
2023-06-30T01:23:53.693Z,4.50
2023-06-30T01:26:28.616Z,4.90
2023-06-30T01:29:04.254Z,4.70
2023-06-30T01:31:39.981Z,4.90
2023-06-30T01:34:13.980Z,5.00
2023-06-30T01:36:49.420Z,4.80
2023-06-30T01:39:22.849Z,5.10
2023-06-30T01:41:59.976Z,5.10
2023-06-30T01:44:36.506Z,4.90
2023-06-30T01:47:10.889Z,4.80
2023-06-30T01:49:45.425Z,5.00
2023-06-30T01:52:21.376Z,5.00
2023-06-30T01:54:55.114Z,5.10
2023-06-30T01:57:31.056Z,5.20
2023-06-30T02:00:08.514Z,5.10
2023-06-30T02:02:44.101Z,5.10
2023-06-30T02:05:18.198Z,5.10
2023-06-30T02:07:51.791Z,4.90
2023-06-30T02:10:26.442Z,5.10
2023-06-30T02:13:00.388Z,5.00
2023-06-30T02:15:33.907Z,5.50
2023-06-30T02:18:10.453Z,5.30
2023-06-30T02:20:43.902Z,5.40
2023-06-30T02:23:18.167Z,4.70
2023-06-30T02:25:52.299Z,4.80
2023-06-30T02:28:25.831Z,4.90
2023-06-30T02:31:00.698Z,5.10
2023-06-30T02:33:34.865Z,4.80
2023-06-30T02:36:11.359Z,4.60
2023-06-30T02:38:46.056Z,4.70
2023-06-30T02:41:19.931Z,5.10
2023-06-30T02:43:53.940Z,5.00
2023-06-30T02:46:28.161Z,4.90
2023-06-30T02:49:01.986Z,5.00
2023-06-30T02:51:35.893Z,5.00
2023-06-30T02:54:10.074Z,5.00
2023-06-30T02:56:43.882Z,4.90
2023-06-30T02:59:18.099Z,5.20
2023-06-30T03:01:54.858Z,5.20
2023-06-30T03:04:29.053Z,5.40
2023-06-30T03:07:02.924Z,4.90
2023-06-30T03:09:36.912Z,5.10
2023-06-30T03:12:12.993Z,4.80
2023-06-30T03:14:49.263Z,4.80
2023-06-30T03:17:23.158Z,5.10
2023-06-30T03:19:56.930Z,4.80
2023-06-30T03:22:31.013Z,5.20
2023-06-30T03:25:05.875Z,4.90
2023-06-30T03:27:40.121Z,4.80
2023-06-30T03:30:19.396Z,4.50
2023-06-30T03:32:54.854Z,4.60
2023-06-30T03:35:28.959Z,4.80
2023-06-30T03:38:02.960Z,4.90
2023-06-30T03:40:37.017Z,4.80
2023-06-30T03:43:11.661Z,5.00
2023-06-30T03:45:45.145Z,4.70
2023-06-30T03:48:22.708Z,4.80
2023-06-30T03:51:01.202Z,5.00
2023-06-30T03:53:35.010Z,5.10
2023-06-30T03:56:09.452Z,5.20
2023-06-30T03:58:45.415Z,5.30
2023-06-30T04:01:22.092Z,5.20
2023-06-30T04:03:59.136Z,5.20
2023-06-30T04:06:34.748Z,5.10
2023-06-30T04:09:08.323Z,5.20
2023-06-30T04:11:41.962Z,5.20
2023-06-30T04:14:16.035Z,5.60
2023-06-30T04:16:50.266Z,5.60
2023-06-30T04:19:24.129Z,5.50
2023-06-30T04:21:58.292Z,5.70
2023-06-30T04:24:32.020Z,5.70
2023-06-30T04:27:06.677Z,6.20
2023-06-30T04:29:40.262Z,6.10
2023-06-30T04:32:14.025Z,6.60
2023-06-30T04:34:48.110Z,6.70
2023-06-30T04:37:24.343Z,6.30
2023-06-30T04:39:58.573Z,6.00
2023-06-30T04:42:33.313Z,6.60
2023-06-30T04:45:08.870Z,6.60
2023-06-30T04:47:42.502Z,6.50
2023-06-30T04:50:16.168Z,6.60
2023-06-30T04:52:50.062Z,6.90
2023-06-30T04:55:23.515Z,6.60
2023-06-30T04:57:57.696Z,6.40
2023-06-30T05:00:31.459Z,6.10
2023-06-30T05:03:05.586Z,6.00
2023-06-30T05:05:39.388Z,6.00
2023-06-30T05:08:13.049Z,6.10
2023-06-30T05:10:47.477Z,5.90
2023-06-30T05:13:23.522Z,6.40
2023-06-30T05:15:57.215Z,6.10
2023-06-30T05:18:31.112Z,5.90
2023-06-30T05:21:05.175Z,6.00
2023-06-30T05:23:41.814Z,5.60
2023-06-30T05:26:15.979Z,5.50
2023-06-30T05:29:03.420Z,5.30
2023-06-30T05:31:39.221Z,5.50
2023-06-30T05:34:18.771Z,5.90
2023-06-30T05:36:52.186Z,6.00
2023-06-30T05:39:26.240Z,6.10
2023-06-30T05:42:00.478Z,6.10
2023-06-30T05:44:34.287Z,5.90
2023-06-30T05:47:09.217Z,5.80
2023-06-30T05:49:43.168Z,6.20
2023-06-30T05:52:17.225Z,5.70
2023-06-30T05:54:51.239Z,5.40
2023-06-30T05:57:25.376Z,5.40
2023-06-30T06:00:01.558Z,5.30
2023-06-30T06:02:35.292Z,5.50
2023-06-30T06:05:10.715Z,5.30
2023-06-30T06:07:44.754Z,5.20
2023-06-30T06:10:18.345Z,5.50
2023-06-30T06:12:58.116Z,5.60
2023-06-30T06:15:32.294Z,5.80
2023-06-30T06:18:06.527Z,5.50
2023-06-30T06:20:40.789Z,5.50
2023-06-30T06:23:14.607Z,5.30
2023-06-30T06:25:48.594Z,5.40
2023-06-30T06:28:22.169Z,5.50
2023-06-30T06:30:56.437Z,5.00
2023-06-30T06:33:32.507Z,5.40
2023-06-30T06:36:06.761Z,5.50
2023-06-30T06:38:40.795Z,5.30
2023-06-30T06:41:14.593Z,5.30
2023-06-30T06:43:48.206Z,5.00
2023-06-30T06:46:22.326Z,4.80
2023-06-30T06:48:58.640Z,5.20
2023-06-30T06:51:35.530Z,5.20
2023-06-30T06:54:11.775Z,5.20
2023-06-30T06:56:48.069Z,4.90
2023-06-30T06:59:21.560Z,5.20
2023-06-30T07:01:55.391Z,4.60
2023-06-30T07:04:37.100Z,4.70
2023-06-30T07:07:10.851Z,4.60
2023-06-30T07:09:44.210Z,4.70
2023-06-30T07:12:18.306Z,4.60
2023-06-30T07:14:52.635Z,4.90
2023-06-30T07:17:29.798Z,5.00
2023-06-30T07:20:16.720Z,4.40
2023-06-30T07:22:51.021Z,4.40
2023-06-30T07:25:28.095Z,5.20
2023-06-30T07:28:03.984Z,5.60
2023-06-30T07:30:40.706Z,5.50
2023-06-30T07:33:14.525Z,5.00
2023-06-30T07:35:48.634Z,5.00
2023-06-30T07:38:22.346Z,4.60
2023-06-30T07:40:57.383Z,4.60
2023-06-30T07:43:32.340Z,4.50
2023-06-30T07:46:08.479Z,4.40
2023-06-30T07:48:45.131Z,4.70
2023-06-30T07:51:22.659Z,4.70
2023-06-30T07:53:57.342Z,4.80
2023-06-30T07:56:34.302Z,4.70
2023-06-30T07:59:11.362Z,4.80
2023-06-30T08:01:46.307Z,4.80
2023-06-30T08:04:22.937Z,4.50
2023-06-30T08:06:58.364Z,4.50
2023-06-30T08:09:35.346Z,4.40
2023-06-30T08:12:14.313Z,5.00
2023-06-30T08:14:50.007Z,4.70
2023-06-30T08:17:26.919Z,4.50
2023-06-30T08:20:18.865Z,4.70
2023-06-30T08:22:56.338Z,4.40
2023-06-30T08:25:32.330Z,4.00
2023-06-30T08:28:10.325Z,4.20
2023-06-30T08:30:48.100Z,3.60
2023-06-30T08:36:13.508Z,4.40
2023-06-30T08:38:48.342Z,4.20
2023-06-30T08:41:28.647Z,4.30
2023-06-30T08:44:04.271Z,4.20
2023-06-30T08:46:39.928Z,4.30
2023-06-30T08:49:16.623Z,4.00
2023-06-30T08:51:53.648Z,3.90
2023-06-30T08:54:32.870Z,3.90
2023-06-30T08:57:08.338Z,3.80
2023-06-30T08:59:44.187Z,4.50
2023-06-30T09:02:19.624Z,5.70
2023-06-30T09:05:02.453Z,4.80
2023-06-30T09:07:44.521Z,4.60
2023-06-30T09:10:22.341Z,4.80
2023-06-30T09:12:59.824Z,4.50
2023-06-30T09:15:35.627Z,4.70
2023-06-30T09:18:17.903Z,4.60
2023-06-30T09:20:55.002Z,4.20
2023-06-30T09:23:31.159Z,4.30
2023-06-30T09:26:15.806Z,4.00
2023-06-30T09:28:50.805Z,4.30
2023-06-30T09:31:33.713Z,4.00
2023-06-30T09:34:20.923Z,3.80
2023-06-30T09:36:56.733Z,3.50
2023-06-30T09:39:33.472Z,3.60
2023-06-30T09:42:22.519Z,3.80
2023-06-30T09:44:58.311Z,3.60
2023-06-30T09:47:33.767Z,3.50
2023-06-30T09:50:18.678Z,3.80
2023-06-30T09:52:55.090Z,3.60
2023-06-30T09:55:29.540Z,3.80
2023-06-30T09:58:05.529Z,3.60
2023-06-30T10:00:43.700Z,3.40
2023-06-30T10:03:22.377Z,3.40
2023-06-30T10:06:00.243Z,3.50
2023-06-30T10:08:36.182Z,3.20
2023-06-30T10:11:13.163Z,3.90
2023-06-30T10:13:49.297Z,3.40
2023-06-30T10:16:26.351Z,3.30
2023-06-30T10:19:06.496Z,3.60
2023-06-30T10:21:41.984Z,3.30
2023-06-30T10:24:18.627Z,3.00
2023-06-30T10:26:56.625Z,3.30
2023-06-30T10:29:33.496Z,3.30
2023-06-30T10:32:14.616Z,3.50
2023-06-30T10:34:51.405Z,3.00
2023-06-30T10:37:30.730Z,3.20
2023-06-30T10:40:25.073Z,3.10
2023-06-30T10:46:03.463Z,3.10
2023-06-30T10:48:38.824Z,3.30
2023-06-30T10:51:16.290Z,3.00
2023-06-30T10:53:56.264Z,3.20
2023-06-30T10:56:33.166Z,3.20
2023-06-30T10:59:09.103Z,3.00
2023-06-30T11:02:26.547Z,3.00
2023-06-30T11:05:32.153Z,3.20
2023-06-30T11:08:25.186Z,2.90
2023-06-30T11:11:09.878Z,2.70
2023-06-30T11:13:46.422Z,3.00
2023-06-30T11:16:21.680Z,2.90
2023-06-30T11:19:06.363Z,2.80
2023-06-30T11:21:47.065Z,2.90
2023-06-30T11:24:22.068Z,2.70
2023-06-30T11:26:57.681Z,3.00
2023-06-30T11:29:34.130Z,2.70
2023-06-30T11:32:14.553Z,2.60
2023-06-30T11:34:53.119Z,2.70
2023-06-30T11:37:28.457Z,2.80
2023-06-30T11:40:06.667Z,2.80
2023-06-30T11:42:45.763Z,2.70
2023-06-30T11:45:22.122Z,2.50
2023-06-30T11:48:00.331Z,2.70
2023-06-30T11:50:35.863Z,2.80
2023-06-30T11:53:16.527Z,2.50
2023-06-30T11:55:56.564Z,2.60
2023-06-30T11:58:40.871Z,2.70
2023-06-30T12:01:23.692Z,2.80
2023-06-30T12:04:39.317Z,2.80
2023-06-30T12:07:19.999Z,2.90
2023-06-30T12:10:07.074Z,2.80
2023-06-30T12:12:45.384Z,2.70
2023-06-30T12:15:33.522Z,3.00
2023-06-30T12:18:12.818Z,3.20
2023-06-30T12:20:47.856Z,2.90
2023-06-30T12:23:31.626Z,2.90
2023-06-30T12:26:13.964Z,3.10
2023-06-30T12:28:51.882Z,3.10
2023-06-30T12:31:29.926Z,3.40
2023-06-30T12:34:04.967Z,3.20
2023-06-30T12:36:40.448Z,3.10
2023-06-30T12:39:23.828Z,3.00
2023-06-30T12:42:00.824Z,3.00
2023-06-30T12:44:36.857Z,3.00
2023-06-30T12:47:12.800Z,3.20
2023-06-30T12:49:52.270Z,3.20
2023-06-30T12:52:30.354Z,3.00
2023-06-30T12:55:10.461Z,3.00
2023-06-30T12:57:49.747Z,3.10
2023-06-30T13:00:31.593Z,3.30
2023-06-30T13:03:06.972Z,2.80
2023-06-30T13:05:42.453Z,2.90
2023-06-30T13:08:17.784Z,2.80
2023-06-30T13:10:53.799Z,2.90
2023-06-30T13:13:33.997Z,3.10
2023-06-30T13:16:11.252Z,2.80
2023-06-30T13:18:46.179Z,2.80
2023-06-30T13:21:22.470Z,2.70
2023-06-30T13:23:59.839Z,3.00
2023-06-30T13:26:38.252Z,2.80
2023-06-30T13:29:17.578Z,2.90
2023-06-30T13:31:54.599Z,2.70
2023-06-30T13:34:29.975Z,2.90
2023-06-30T13:37:06.277Z,2.80
2023-06-30T13:39:43.303Z,2.70
2023-06-30T13:42:19.078Z,2.80
2023-06-30T13:44:54.171Z,2.90
2023-06-30T13:47:32.793Z,2.80
2023-06-30T13:50:08.363Z,2.80
2023-06-30T13:52:47.911Z,2.90
2023-06-30T13:55:32.024Z,2.70
2023-06-30T13:58:08.819Z,3.10
2023-06-30T14:00:48.456Z,2.70
2023-06-30T14:03:31.355Z,2.70
2023-06-30T14:06:06.231Z,2.90
2023-06-30T14:08:44.209Z,3.00
2023-06-30T14:11:22.884Z,2.70
2023-06-30T14:13:58.218Z,2.80
2023-06-30T14:16:41.252Z,2.80
2023-06-30T14:19:20.990Z,3.10
2023-06-30T14:21:56.918Z,2.90
2023-06-30T14:24:32.994Z,3.40
2023-06-30T14:27:14.577Z,3.20
2023-06-30T14:29:49.967Z,3.00
2023-06-30T14:32:26.750Z,3.30
2023-06-30T14:35:04.077Z,3.40
2023-06-30T14:37:39.022Z,3.00
2023-06-30T14:40:17.283Z,3.20
2023-06-30T14:42:53.233Z,3.40
2023-06-30T14:45:30.777Z,3.00
2023-06-30T14:48:08.761Z,3.00
2023-06-30T14:50:45.560Z,3.40
2023-06-30T14:53:20.976Z,3.00
2023-06-30T14:55:59.049Z,3.30
2023-06-30T14:58:34.940Z,3.40
2023-06-30T15:01:10.959Z,3.10
2023-06-30T15:03:50.851Z,3.10
2023-06-30T15:06:25.953Z,3.00
2023-06-30T15:09:03.858Z,3.10
2023-06-30T15:11:38.957Z,3.00
2023-06-30T15:14:15.993Z,3.00
2023-06-30T15:16:51.045Z,3.20
2023-06-30T15:19:31.159Z,3.00
2023-06-30T15:22:06.258Z,3.30
2023-06-30T15:24:44.375Z,3.10
2023-06-30T15:27:23.453Z,3.20
2023-06-30T15:29:58.147Z,3.00
2023-06-30T15:32:36.000Z,3.00
2023-06-30T15:35:12.354Z,3.10
2023-06-30T15:37:49.225Z,2.90
2023-06-30T15:40:23.800Z,3.00
2023-06-30T15:43:00.394Z,3.00
2023-06-30T15:45:37.282Z,3.10
2023-06-30T15:48:17.555Z,3.20
2023-06-30T15:50:54.995Z,3.10
2023-06-30T15:53:30.975Z,2.80
2023-06-30T15:56:07.266Z,3.10
2023-06-30T15:58:43.045Z,3.20
2023-06-30T16:01:19.527Z,2.90
2023-06-30T16:03:55.372Z,3.10
2023-06-30T16:06:31.108Z,3.00
2023-06-30T16:09:07.294Z,2.90
2023-06-30T16:11:43.213Z,3.10
2023-06-30T16:14:21.373Z,3.00
2023-06-30T16:17:06.522Z,2.90
2023-06-30T16:19:41.145Z,2.90
2023-06-30T16:22:18.500Z,2.90
2023-06-30T16:24:56.336Z,2.90
2023-06-30T16:27:31.153Z,2.70
2023-06-30T16:30:30.767Z,2.60
2023-06-30T16:33:08.377Z,2.80
2023-06-30T16:35:43.173Z,2.70
2023-06-30T16:38:19.422Z,2.50
2023-06-30T16:40:55.059Z,2.80
2023-06-30T16:43:32.211Z,2.60
2023-06-30T16:46:08.221Z,2.40
2023-06-30T16:48:44.613Z,2.30
2023-06-30T16:51:19.202Z,2.40
2023-06-30T16:53:55.221Z,2.50
2023-06-30T16:56:31.222Z,2.50
2023-06-30T16:59:08.454Z,2.60
2023-06-30T17:01:43.170Z,2.50
2023-06-30T17:04:19.734Z,2.50
2023-06-30T17:06:55.703Z,2.60
2023-06-30T17:09:30.139Z,2.50
2023-06-30T17:12:07.829Z,2.40
2023-06-30T17:14:42.309Z,2.90
2023-06-30T17:17:21.122Z,2.70
2023-06-30T17:19:59.277Z,2.80
2023-06-30T17:22:34.673Z,3.30
2023-06-30T17:25:19.023Z,3.00
2023-06-30T17:27:57.247Z,2.90
2023-06-30T17:30:32.175Z,2.90
2023-06-30T17:33:08.640Z,3.00
2023-06-30T17:35:44.759Z,3.00
2023-06-30T17:38:20.160Z,3.30
2023-06-30T17:40:56.227Z,2.60
2023-06-30T17:43:32.138Z,2.90
2023-06-30T17:46:08.327Z,3.10
2023-06-30T17:48:44.281Z,3.20
2023-06-30T17:51:20.289Z,3.00
2023-06-30T17:54:00.061Z,3.00
2023-06-30T17:56:35.304Z,3.20
2023-06-30T17:59:11.201Z,3.00
2023-06-30T18:01:49.026Z,3.20
2023-06-30T18:04:24.199Z,3.30
2023-06-30T18:07:16.051Z,3.40
2023-06-30T18:09:50.902Z,3.70
2023-06-30T18:12:27.274Z,3.80
2023-06-30T18:15:01.776Z,3.70
2023-06-30T18:17:39.371Z,3.60
2023-06-30T18:20:15.602Z,3.80
2023-06-30T18:22:50.271Z,3.80
2023-06-30T18:25:29.431Z,3.90
2023-06-30T18:28:06.889Z,3.70
2023-06-30T18:30:42.351Z,3.90
2023-06-30T18:33:22.098Z,4.00
2023-06-30T18:35:59.275Z,3.90
2023-06-30T18:38:35.729Z,4.00
2023-06-30T18:41:10.253Z,3.90
2023-06-30T18:43:46.250Z,4.10
2023-06-30T18:46:22.265Z,4.00
2023-06-30T18:48:58.848Z,3.80
2023-06-30T18:51:46.384Z,4.30
2023-06-30T18:54:20.871Z,4.10
2023-06-30T18:56:56.519Z,4.00
2023-06-30T18:59:32.382Z,4.00
2023-06-30T19:02:09.522Z,4.00
2023-06-30T19:04:46.537Z,4.30
2023-06-30T19:07:21.359Z,4.10
2023-06-30T19:09:57.331Z,4.30
2023-06-30T19:12:33.634Z,4.20
2023-06-30T19:15:13.289Z,4.30
2023-06-30T19:17:48.623Z,4.20
2023-06-30T19:20:25.384Z,4.20
2023-06-30T19:23:00.627Z,4.20
2023-06-30T19:25:36.441Z,4.10
2023-06-30T19:28:12.453Z,4.70
2023-06-30T19:30:48.977Z,4.50
2023-06-30T19:33:29.375Z,4.60
2023-06-30T19:36:04.945Z,4.70
2023-06-30T19:38:40.891Z,4.90
2023-06-30T19:41:15.509Z,4.60
2023-06-30T19:43:51.366Z,4.80
2023-06-30T19:46:27.733Z,4.50
2023-06-30T19:49:02.897Z,4.50
2023-06-30T19:51:40.964Z,4.70
2023-06-30T19:54:16.074Z,4.60
2023-06-30T19:56:53.348Z,4.50
2023-06-30T19:59:30.466Z,4.70
2023-06-30T20:02:07.883Z,4.30
2023-06-30T20:04:42.597Z,4.50
2023-06-30T20:07:18.383Z,4.50
2023-06-30T20:09:55.717Z,5.00
2023-06-30T20:12:30.687Z,5.10
2023-06-30T20:15:08.379Z,5.10
2023-06-30T20:17:43.494Z,5.00
2023-06-30T20:20:22.818Z,4.90
2023-06-30T20:23:05.759Z,4.90
2023-06-30T20:25:43.429Z,4.90
2023-06-30T20:28:22.443Z,4.70
2023-06-30T20:31:01.744Z,4.90
2023-06-30T20:33:38.527Z,4.90
2023-06-30T20:36:15.629Z,5.10
2023-06-30T20:38:54.001Z,4.70
2023-06-30T20:41:34.296Z,4.70
2023-06-30T20:44:14.869Z,4.90
2023-06-30T20:46:53.450Z,4.80
2023-06-30T20:49:28.663Z,4.90
2023-06-30T20:52:08.870Z,4.90
2023-06-30T20:54:43.561Z,4.80
2023-06-30T20:57:24.148Z,5.10
2023-06-30T21:00:01.792Z,4.80
2023-06-30T21:02:37.008Z,4.70
2023-06-30T21:05:13.965Z,4.80
2023-06-30T21:07:48.663Z,4.70
2023-06-30T21:10:26.524Z,5.00
2023-06-30T21:13:01.992Z,5.20
2023-06-30T21:15:37.690Z,4.90
2023-06-30T21:18:12.703Z,5.20
2023-06-30T21:20:49.817Z,4.80
2023-06-30T21:23:27.009Z,4.90
2023-06-30T21:26:05.925Z,5.00
2023-06-30T21:28:41.874Z,5.20
2023-06-30T21:31:18.385Z,5.10
2023-06-30T21:33:59.796Z,5.10
2023-06-30T21:36:39.528Z,4.90
2023-06-30T21:39:15.664Z,5.10
2023-06-30T21:41:51.511Z,5.40
2023-06-30T21:44:27.561Z,5.00
2023-06-30T21:47:03.617Z,5.20
2023-06-30T21:49:40.715Z,5.60
2023-06-30T21:52:19.100Z,5.10
2023-06-30T21:55:03.925Z,5.30
2023-06-30T21:57:41.602Z,5.50
2023-06-30T22:00:22.166Z,5.90
2023-06-30T22:03:00.619Z,5.70
2023-06-30T22:05:35.546Z,6.20
2023-06-30T22:08:11.658Z,6.30
2023-06-30T22:10:48.879Z,6.00
2023-06-30T22:13:23.790Z,6.00
2023-06-30T22:15:59.586Z,6.10
2023-06-30T22:18:36.988Z,6.00
2023-06-30T22:21:11.777Z,5.90
2023-06-30T22:23:47.621Z,6.10
2023-06-30T22:26:28.976Z,6.50
2023-06-30T22:29:04.254Z,6.20
2023-06-30T22:31:40.467Z,6.10
2023-06-30T22:34:23.738Z,6.00
2023-06-30T22:37:01.233Z,6.20
2023-06-30T22:39:39.085Z,5.60
2023-06-30T22:42:14.758Z,5.60
2023-06-30T22:44:49.657Z,5.40
2023-06-30T22:47:25.770Z,5.10
2023-06-30T22:50:01.671Z,5.20
2023-06-30T22:52:39.513Z,4.60
2023-06-30T22:55:14.836Z,5.00
2023-06-30T22:57:52.042Z,4.80
2023-06-30T23:00:27.011Z,4.80
2023-06-30T23:03:03.419Z,4.90
2023-06-30T23:05:38.747Z,4.70
2023-06-30T23:08:14.912Z,4.50
2023-06-30T23:10:54.500Z,4.90
2023-06-30T23:13:33.582Z,4.40
2023-06-30T23:16:11.988Z,4.80
2023-06-30T23:18:46.874Z,5.50
2023-06-30T23:21:23.040Z,5.10
2023-06-30T23:24:01.127Z,5.40
2023-06-30T23:26:40.106Z,5.30
2023-06-30T23:29:14.783Z,5.10
2023-06-30T23:31:52.153Z,5.20
2023-06-30T23:34:29.737Z,5.50
2023-06-30T23:37:06.255Z,5.40
2023-06-30T23:39:42.361Z,5.80
2023-06-30T23:42:18.121Z,5.20
2023-06-30T23:44:52.775Z,6.00
2023-06-30T23:47:30.946Z,5.50
2023-06-30T23:50:06.729Z,5.60
2023-06-30T23:52:44.297Z,5.50
2023-06-30T23:55:22.054Z,5.40
2023-06-30T23:57:56.843Z,5.50
